Time;durP1;ratioP1;P1;durP2;ratioP2;P2;SDS_P1;SDS_P2;PMS_P1;PMS_P2;Temp;Humidity;BMP_temperature;BMP_pressure;BME280_temperature;BME280_humidity;BME280_pressure;Samples;Min_cycle;Max_cycle;Signal;HPM_P1;HPM_P2
2021/05/04 00:01:16;;;;;;;3.80;2.47;;;;;;;7.54;57.73;100082.42;128348;1101;62688;-76
2021/05/04 00:03:42;;;;;;;3.17;1.73;;;;;;;7.56;57.82;100080.44;128369;1101;62089;-76
2021/05/04 00:06:09;;;;;;;4.00;1.60;;;;;;;7.56;57.66;100064.61;128297;1101;62276;-76
2021/05/04 00:08:36;;;;;;;2.57;1.50;;;;;;;7.57;57.91;100060.98;128274;1101;64021;-76
2021/05/04 00:11:02;;;;;;;3.20;1.80;;;;;;;7.57;57.42;100050.43;128348;1101;62140;-76
2021/05/04 00:13:29;;;;;;;2.83;1.87;;;;;;;7.59;57.54;100037.88;128293;1101;63225;-77
2021/05/04 00:15:55;;;;;;;2.13;1.40;;;;;;;7.61;57.19;100035.89;128308;1101;63984;-76
2021/05/04 00:18:22;;;;;;;2.60;1.83;;;;;;;7.63;57.00;100033.06;128384;1101;62091;-76
2021/05/04 00:20:49;;;;;;;2.40;1.43;;;;;;;7.64;56.99;100019.70;128360;1101;62249;-76
2021/05/04 00:23:16;;;;;;;3.10;1.80;;;;;;;7.66;56.87;100012.44;128384;1101;62288;-77
2021/05/04 00:25:43;;;;;;;3.57;2.00;;;;;;;7.67;57.17;100010.61;128385;1101;62248;-76
2021/05/04 00:28:10;;;;;;;2.17;1.67;;;;;;;7.68;56.49;100002.52;128390;1101;62398;-76
2021/05/04 00:30:53;;;;;;;2.75;1.80;;;;;;;7.69;57.10;99996.27;128369;1101;62204;-76
2021/05/04 00:33:19;;;;;;;3.07;1.80;;;;;;;7.70;56.75;99992.62;128412;1101;63455;-75
2021/05/04 00:35:47;;;;;;;2.70;1.40;;;;;;;7.69;56.77;99972.51;128378;1101;62279;-76
2021/05/04 00:38:14;;;;;;;1.70;0.93;;;;;;;7.73;56.46;99970.32;128318;1101;62121;-75
2021/05/04 00:40:41;;;;;;;2.40;1.20;;;;;;;7.78;56.07;99957.44;128343;1101;62295;-75
2021/05/04 00:43:08;;;;;;;4.27;2.23;;;;;;;7.87;55.63;99950.28;128362;1101;62412;-74
2021/05/04 00:45:35;;;;;;;5.23;1.90;;;;;;;7.96;55.49;99946.58;128062;1102;62846;-75
2021/05/04 00:48:02;;;;;;;3.17;2.07;;;;;;;8.06;54.97;99935.78;128647;1101;62738;-75
2021/05/04 00:50:30;;;;;;;3.10;2.00;;;;;;;8.15;54.67;99924.95;128173;1101;62533;-75
2021/05/04 00:52:56;;;;;;;2.97;1.90;;;;;;;8.24;53.79;99909.84;128109;1101;62494;-76
2021/05/04 00:55:24;;;;;;;4.17;2.10;;;;;;;8.34;53.34;99906.97;128354;1101;62658;-75
2021/05/04 00:57:51;;;;;;;2.97;2.03;;;;;;;8.42;53.07;99906.11;128340;1101;62205;-75
2021/05/04 01:00:18;;;;;;;3.43;2.37;;;;;;;8.50;53.31;99898.92;128302;1101;62268;-77
2021/05/04 01:02:46;;;;;;;2.70;1.40;;;;;;;8.56;52.44;99886.78;128344;1101;62265;-75
2021/05/04 01:05:13;;;;;;;3.95;2.15;;;;;;;8.63;52.50;99877.14;128359;1101;62122;-76
2021/05/04 01:07:40;;;;;;;2.67;1.87;;;;;;;8.71;52.41;99873.56;128372;1101;62175;-76
2021/05/04 01:10:07;;;;;;;4.10;2.03;;;;;;;8.76;52.01;99856.16;128391;1101;62192;-77
2021/05/04 01:12:35;;;;;;;4.13;2.20;;;;;;;8.81;51.65;99847.66;128285;1101;62053;-77
2021/05/04 01:15:02;;;;;;;3.73;1.90;;;;;;;8.87;51.35;99846.12;128302;1101;62615;-76
2021/05/04 01:17:30;;;;;;;2.70;1.63;;;;;;;8.89;51.51;99833.53;128316;1101;63973;-77
2021/05/04 01:19:57;;;;;;;4.03;2.30;;;;;;;8.92;51.05;99823.38;128357;1101;62480;-76
2021/05/04 01:22:24;;;;;;;5.90;2.33;;;;;;;8.95;51.39;99811.63;128320;1101;62878;-77
2021/05/04 01:24:50;;;;;;;4.20;2.27;;;;;;;8.97;50.87;99802.50;128395;1101;62374;-77
2021/05/04 01:27:19;;;;;;;3.10;1.90;;;;;;;8.98;50.85;99792.73;128308;1101;62338;-77
2021/05/04 01:29:46;;;;;;;4.97;2.50;;;;;;;9.00;50.69;99777.48;128363;1101;62007;-76
2021/05/04 01:32:13;;;;;;;3.83;1.87;;;;;;;9.00;50.94;99780.14;128353;1101;62906;-77
2021/05/04 01:34:40;;;;;;;4.53;1.80;;;;;;;8.99;51.28;99770.58;128383;1101;62142;-77
2021/05/04 01:37:06;;;;;;;7.15;2.50;;;;;;;8.97;51.40;99770.76;128292;1101;63101;-77
2021/05/04 01:39:54;;;;;;;3.23;1.90;;;;;;;8.96;50.62;99761.16;128295;1101;62257;-76
2021/05/04 01:42:22;;;;;;;3.13;1.50;;;;;;;8.96;51.22;99742.65;128311;1101;62389;-75
2021/05/04 01:44:49;;;;;;;3.40;2.23;;;;;;;8.96;50.88;99742.65;128412;1101;62217;-75
2021/05/04 01:47:16;;;;;;;4.03;1.90;;;;;;;8.97;50.59;99725.79;128339;1101;62892;-75
2021/05/04 01:49:45;;;;;;;3.83;2.63;;;;;;;8.98;50.87;99710.73;128280;1101;62187;-75
2021/05/04 01:52:12;;;;;;;3.57;2.03;;;;;;;9.01;50.19;99705.08;128307;1101;62371;-75
2021/05/04 01:54:39;;;;;;;3.17;1.70;;;;;;;9.03;50.31;99696.93;128305;1101;62062;-75
2021/05/04 01:57:06;;;;;;;4.57;2.63;;;;;;;9.04;51.17;99693.29;128303;1101;62433;-75
2021/05/04 01:59:34;;;;;;;9.37;2.40;;;;;;;9.06;51.04;99685.98;128388;1101;62197;-76
2021/05/04 02:02:00;;;;;;;4.53;2.50;;;;;;;9.07;50.76;99666.45;128191;1102;64349;-76
2021/05/04 02:04:31;;;;;;;4.03;2.07;;;;;;;9.08;50.54;99658.33;128325;1101;62355;-75
2021/05/04 02:07:02;;;;;;;2.53;1.60;;;;;;;9.09;51.20;99653.84;128360;1101;64160;-76
2021/05/04 02:09:29;;;;;;;2.73;1.67;;;;;;;9.09;50.64;99643.27;128370;1101;62971;-76
2021/05/04 02:11:55;;;;;;;2.27;1.53;;;;;;;9.10;51.35;99634.33;128379;1101;62004;-75
2021/05/04 02:14:22;;;;;;;3.80;1.70;;;;;;;9.09;51.02;99627.39;128339;1101;62278;-76
2021/05/04 02:16:48;;;;;;;3.23;2.03;;;;;;;9.08;51.41;99617.83;128328;1101;62646;-75
2021/05/04 02:19:15;;;;;;;3.53;2.10;;;;;;;9.08;50.70;99609.89;128388;1101;62615;-76
2021/05/04 02:21:42;;;;;;;2.17;1.40;;;;;;;9.08;51.27;99596.66;128284;1101;62588;-76
2021/05/04 02:24:09;;;;;;;3.20;2.13;;;;;;;9.10;50.43;99592.00;128293;1101;62796;-76
2021/05/04 02:26:35;;;;;;;4.07;1.70;;;;;;;9.12;50.01;99579.41;128330;1101;62301;-76
2021/05/04 02:29:02;;;;;;;3.87;2.50;;;;;;;9.16;50.04;99575.36;128351;1101;62620;-75
2021/05/04 02:31:29;;;;;;;4.70;2.20;;;;;;;9.21;49.44;99557.06;128288;1101;62625;-75
2021/05/04 02:33:55;;;;;;;5.07;1.60;;;;;;;9.24;49.11;99559.31;128242;1102;62401;-76
2021/05/04 02:36:22;;;;;;;4.10;2.03;;;;;;;9.30;49.80;99545.30;128359;1101;62352;-77
2021/05/04 02:38:48;;;;;;;4.10;2.60;;;;;;;9.35;49.16;99532.32;128351;1101;62165;-77
2021/05/04 02:41:15;;;;;;;5.47;1.90;;;;;;;9.39;49.08;99522.98;128363;1101;62345;-76
2021/05/04 02:43:41;;;;;;;3.27;1.90;;;;;;;9.43;48.69;99507.50;128366;1101;62064;-76
2021/05/04 02:46:08;;;;;;;4.10;2.23;;;;;;;9.48;49.37;99501.61;128345;1101;62065;-76
2021/05/04 02:48:40;;;;;;;3.07;1.93;;;;;;;9.50;49.37;99489.84;128354;1101;62853;-76
2021/05/04 02:51:08;;;;;;;5.83;2.47;;;;;;;9.53;48.62;99467.44;128335;1101;62317;-77
2021/05/04 02:53:37;;;;;;;6.73;2.50;;;;;;;9.56;48.33;99459.09;128362;1101;62508;-76
2021/05/04 02:56:05;;;;;;;3.63;1.90;;;;;;;9.59;48.42;99451.58;128370;1101;63088;-76
2021/05/04 02:58:33;;;;;;;5.13;2.57;;;;;;;9.62;48.26;99433.66;128344;1101;62189;-76
2021/05/04 03:01:00;;;;;;;3.63;1.90;;;;;;;9.65;48.77;99430.59;128332;1101;62464;-76
2021/05/04 03:03:26;;;;;;;6.73;2.10;;;;;;;9.65;48.44;99426.14;128391;1101;62355;-77
2021/05/04 03:05:53;;;;;;;4.63;2.20;;;;;;;9.66;48.04;99414.52;128377;1101;62310;-76
2021/05/04 03:08:20;;;;;;;3.93;2.20;;;;;;;9.66;48.01;99398.63;128328;1101;62517;-76
2021/05/04 03:10:47;;;;;;;3.60;1.70;;;;;;;9.66;48.63;99401.28;128369;1101;62246;-77
2021/05/04 03:13:13;;;;;;;2.40;1.60;;;;;;;9.67;48.71;99386.20;128128;1101;62532;-77
2021/05/04 03:15:40;;;;;;;3.13;2.20;;;;;;;9.67;48.40;99372.95;128389;1101;62913;-77
2021/05/04 03:18:07;;;;;;;3.30;1.63;;;;;;;9.67;48.10;99371.16;128374;1101;62443;-76
2021/05/04 03:20:34;;;;;;;5.43;2.67;;;;;;;9.69;48.91;99361.17;128382;1101;63771;-76
2021/05/04 03:23:01;;;;;;;4.97;2.00;;;;;;;9.70;48.53;99348.74;128330;1101;62295;-76
2021/05/04 03:25:28;;;;;;;4.00;2.40;;;;;;;9.72;47.52;99349.36;128368;1101;62776;-76
2021/05/04 03:27:57;;;;;;;3.07;1.67;;;;;;;9.72;48.36;99339.58;128354;1101;62254;-76
2021/05/04 03:30:25;;;;;;;5.57;2.67;;;;;;;9.74;48.05;99324.30;128162;1101;62187;-76
2021/05/04 03:32:52;;;;;;;3.13;1.90;;;;;;;9.75;47.55;99320.65;128381;1101;62406;-77
2021/05/04 03:35:19;;;;;;;3.30;2.00;;;;;;;9.76;48.39;99309.02;128437;1101;62062;-77
2021/05/04 03:37:47;;;;;;;5.50;2.73;;;;;;;9.75;48.09;99310.05;128381;1101;62158;-76
2021/05/04 03:40:14;;;;;;;3.60;1.83;;;;;;;9.76;48.67;99295.78;128401;1101;62620;-77
2021/05/04 03:42:41;;;;;;;3.93;2.13;;;;;;;9.78;47.94;99288.45;128382;1101;62238;-76
2021/05/04 03:45:11;;;;;;;4.00;1.73;;;;;;;9.78;48.31;99272.55;128424;1102;63159;-77
2021/05/04 03:47:42;;;;;;;3.10;1.73;;;;;;;9.81;48.90;99276.63;128423;1101;62166;-76
2021/05/04 03:50:12;;;;;;;4.93;3.10;;;;;;;9.82;48.30;99280.08;128365;1101;62952;-76
2021/05/04 03:52:39;;;;;;;4.73;2.70;;;;;;;9.82;48.56;99272.13;128404;1101;62284;-77
2021/05/04 03:55:06;;;;;;;4.67;2.60;;;;;;;9.82;48.15;99272.97;128397;1101;62047;-76
2021/05/04 03:57:33;;;;;;;4.87;2.30;;;;;;;9.87;47.89;99267.05;128233;1101;62231;-76
2021/05/04 04:00:00;;;;;;;3.83;2.23;;;;;;;9.94;47.46;99259.91;128368;1101;63926;-76
2021/05/04 04:02:26;;;;;;;4.17;2.40;;;;;;;10.01;47.50;99271.32;128365;1101;62303;-76
2021/05/04 04:04:53;;;;;;;3.70;2.43;;;;;;;10.06;47.47;99274.16;128326;1101;62420;-76
2021/05/04 04:07:20;;;;;;;4.87;2.23;;;;;;;10.16;47.35;99273.75;128401;1101;62263;-75
2021/05/04 04:09:47;;;;;;;6.50;2.27;;;;;;;10.21;46.52;99281.88;128345;1101;62763;-75
2021/05/04 04:12:13;;;;;;;4.90;2.07;;;;;;;10.31;45.85;99286.79;128372;1101;62159;-75
2021/05/04 04:14:40;;;;;;;5.73;2.40;;;;;;;10.42;45.75;99272.88;128365;1101;62858;-76
2021/05/04 04:17:07;;;;;;;4.00;2.27;;;;;;;10.48;46.14;99269.40;128269;1101;62559;-76
2021/05/04 04:19:34;;;;;;;3.80;2.13;;;;;;;10.58;46.03;99272.43;128299;1101;62487;-76
2021/05/04 04:22:00;;;;;;;3.07;2.07;;;;;;;10.68;44.92;99285.22;128342;1101;63143;-76
2021/05/04 04:24:27;;;;;;;5.67;2.10;;;;;;;10.72;45.29;99277.67;128388;1101;62553;-76
2021/05/04 04:26:54;;;;;;;4.07;1.97;;;;;;;10.76;45.35;99255.01;128349;1101;63384;-76
2021/05/04 04:29:20;;;;;;;5.13;2.40;;;;;;;10.79;45.46;99247.42;128355;1101;62272;-76
2021/05/04 04:31:47;;;;;;;8.83;3.53;;;;;;;10.82;46.31;99248.86;128359;1101;62797;-76
2021/05/04 04:34:14;;;;;;;3.90;1.53;;;;;;;10.82;46.05;99272.73;128363;1101;62494;-75
2021/05/04 04:36:40;;;;;;;4.50;1.83;;;;;;;10.81;46.23;99252.52;128373;1101;62132;-76
2021/05/04 04:39:07;;;;;;;3.00;1.57;;;;;;;10.79;47.00;99267.84;128386;1101;62473;-76
2021/05/04 04:41:40;;;;;;;3.40;2.20;;;;;;;10.74;48.02;99268.47;128381;1101;62033;-76
2021/05/04 04:44:07;;;;;;;3.97;1.63;;;;;;;10.65;48.14;99248.53;128381;1101;62425;-76
2021/05/04 04:46:41;;;;;;;2.67;1.67;;;;;;;10.59;47.98;99259.98;128364;1101;62570;-75
2021/05/04 04:49:16;;;;;;;4.07;2.10;;;;;;;10.53;48.53;99268.77;128408;1101;62171;-76
2021/05/04 04:51:44;;;;;;;3.20;1.70;;;;;;;10.50;48.95;99254.09;128434;1101;62048;-76
2021/05/04 04:54:11;;;;;;;3.87;1.73;;;;;;;10.49;48.79;99249.00;128378;1101;62437;-76
2021/05/04 04:56:39;;;;;;;3.57;1.33;;;;;;;10.47;48.67;99243.89;128378;1101;62068;-76
2021/05/04 04:59:05;;;;;;;3.10;1.47;;;;;;;10.46;49.03;99236.98;128384;1101;62358;-76
2021/05/04 05:01:33;;;;;;;5.67;2.20;;;;;;;10.44;49.37;99239.02;128094;1101;62250;-76
2021/05/04 05:04:01;;;;;;;2.63;1.40;;;;;;;10.43;49.06;99247.98;128382;1101;62547;-76
2021/05/04 05:06:29;;;;;;;3.13;1.50;;;;;;;10.43;49.33;99242.69;128414;1101;62119;-75
2021/05/04 05:08:55;;;;;;;2.27;1.50;;;;;;;10.44;50.31;99233.72;128360;1101;62313;-75
2021/05/04 05:11:22;;;;;;;2.67;1.50;;;;;;;10.41;50.28;99234.13;128389;1101;62296;-75
2021/05/04 05:13:49;;;;;;;3.13;1.70;;;;;;;10.40;51.18;99232.52;128391;1101;62326;-76
2021/05/04 05:16:18;;;;;;;3.40;1.20;;;;;;;10.38;51.16;99245.16;128265;1101;62876;-76
2021/05/04 05:18:51;;;;;;;2.70;1.60;;;;;;;10.35;50.50;99234.99;127876;1101;64306;-75
2021/05/04 05:21:19;;;;;;;4.43;1.60;;;;;;;10.34;52.03;99249.25;128422;1101;62628;-74
2021/05/04 05:23:45;;;;;;;2.53;1.60;;;;;;;10.29;52.75;99246.39;127922;1101;64263;-75
2021/05/04 05:26:12;;;;;;;4.80;2.00;;;;;;;10.26;53.51;99246.80;128395;1101;62160;-77
2021/05/04 05:28:39;;;;;;;3.50;1.40;;;;;;;10.19;54.55;99234.38;128099;1096;62869;-75
2021/05/04 05:31:06;;;;;;;2.77;1.90;;;;;;;10.12;54.30;99244.19;128295;1101;62190;-75
2021/05/04 05:33:34;;;;;;;2.33;1.50;;;;;;;10.08;55.56;99219.13;128355;1101;62166;-75
2021/05/04 05:36:01;;;;;;;5.00;2.00;;;;;;;10.02;56.06;99262.34;128368;1101;62424;-74
2021/05/04 05:38:33;;;;;;;5.57;1.60;;;;;;;9.92;56.09;99243.40;128379;1101;62529;-75
2021/05/04 05:41:00;;;;;;;4.03;1.80;;;;;;;9.82;57.95;99240.35;128304;1101;63788;-75
2021/05/04 05:43:27;;;;;;;6.27;1.90;;;;;;;9.65;59.73;99246.09;128305;1101;62138;-75
2021/05/04 05:45:53;;;;;;;4.57;2.37;;;;;;;9.51;59.94;99233.87;128366;1101;61990;-75
2021/05/04 05:48:20;;;;;;;3.60;1.43;;;;;;;9.39;60.01;99245.08;128394;1101;62102;-75
2021/05/04 05:50:47;;;;;;;3.00;1.80;;;;;;;9.30;62.00;99254.20;128368;1101;62760;-75
2021/05/04 05:53:16;;;;;;;3.33;2.00;;;;;;;9.17;64.67;99231.19;128128;1101;62142;-75
2021/05/04 05:55:43;;;;;;;3.13;1.60;;;;;;;8.97;65.47;99239.11;128354;1101;62820;-77
2021/05/04 05:58:10;;;;;;;8.93;2.90;;;;;;;8.78;67.06;99238.04;128371;1101;62134;-76
2021/05/04 06:00:36;;;;;;;2.80;1.77;;;;;;;8.60;68.32;99236.95;128426;1101;62428;-79
2021/05/04 06:03:04;;;;;;;3.67;2.23;;;;;;;8.40;68.80;99237.66;128456;1101;62467;-80
2021/05/04 06:05:33;;;;;;;3.23;1.93;;;;;;;8.32;70.15;99224.62;128542;1101;62894;-78
2021/05/04 06:08:01;;;;;;;4.50;2.03;;;;;;;8.24;71.20;99216.85;128484;1101;64109;-79
2021/05/04 06:10:29;;;;;;;3.30;2.07;;;;;;;8.16;71.89;99210.73;128480;1101;62461;-79
2021/05/04 06:13:00;;;;;;;4.10;2.53;;;;;;;8.12;72.23;99220.05;128228;1101;62350;-79
2021/05/04 06:15:27;;;;;;;4.50;2.23;;;;;;;8.11;72.08;99228.16;128476;1101;63429;-81
2021/05/04 06:17:53;;;;;;;3.07;2.20;;;;;;;8.10;72.93;99222.08;128491;1101;62869;-78
2021/05/04 06:20:21;;;;;;;5.03;1.90;;;;;;;8.10;73.09;99211.51;128300;1101;62451;-79
2021/05/04 06:22:47;;;;;;;3.30;2.43;;;;;;;8.12;72.63;99198.92;128403;1101;64209;-81
2021/05/04 06:25:14;;;;;;;2.97;2.07;;;;;;;8.19;71.88;99198.14;128405;1101;62087;-80
2021/05/04 06:27:41;;;;;;;2.60;1.90;;;;;;;8.26;71.34;99191.05;128566;1101;62309;-81
2021/05/04 06:30:09;;;;;;;2.70;1.73;;;;;;;8.39;70.99;99183.17;128496;1101;63111;-81
2021/05/04 06:32:36;;;;;;;3.00;1.87;;;;;;;8.50;69.89;99169.44;128502;1101;61955;-81
2021/05/04 06:35:05;;;;;;;3.37;2.53;;;;;;;8.64;69.45;99177.39;128503;1101;62290;-81
2021/05/04 06:37:31;;;;;;;2.93;1.90;;;;;;;8.78;69.76;99160.55;128475;1101;62340;-82
2021/05/04 06:39:58;;;;;;;3.47;2.20;;;;;;;8.92;68.34;99171.95;128455;1101;63616;-81
2021/05/04 06:42:25;;;;;;;3.93;2.00;;;;;;;9.11;67.19;99159.77;128478;1101;63107;-81
2021/05/04 06:44:51;;;;;;;4.20;1.97;;;;;;;9.32;67.19;99154.27;128430;1101;62837;-80
2021/05/04 06:47:18;;;;;;;2.67;1.43;;;;;;;9.50;65.73;99176.64;128482;1101;62120;-79
2021/05/04 06:49:46;;;;;;;3.30;1.67;;;;;;;9.53;64.20;99147.93;128497;1101;62137;-79
2021/05/04 06:52:12;;;;;;;3.47;1.73;;;;;;;9.58;64.61;99149.95;128411;1101;63037;-79
2021/05/04 06:54:41;;;;;;;2.73;1.50;;;;;;;9.57;64.28;99148.34;128382;1101;63980;-79
2021/05/04 06:57:08;;;;;;;2.10;1.20;;;;;;;9.55;63.70;99156.48;128387;1101;62008;-78
2021/05/04 06:59:35;;;;;;;2.20;1.43;;;;;;;9.51;63.93;99154.45;128404;1101;62260;-78
2021/05/04 07:02:02;;;;;;;3.43;1.60;;;;;;;9.46;63.98;99162.21;128455;1101;62099;-79
2021/05/04 07:04:29;;;;;;;3.37;1.43;;;;;;;9.45;63.86;99139.39;128443;1100;62179;-79
2021/05/04 07:06:56;;;;;;;1.57;0.70;;;;;;;9.53;64.44;99125.95;128424;1101;62095;-78
2021/05/04 07:09:22;;;;;;;2.73;1.30;;;;;;;9.55;63.96;99113.31;128384;1101;62400;-78
2021/05/04 07:11:49;;;;;;;1.63;1.17;;;;;;;9.63;64.60;99121.05;128453;1101;62097;-78
2021/05/04 07:14:16;;;;;;;2.63;1.50;;;;;;;9.70;64.52;99140.36;128414;1101;62261;-78
2021/05/04 07:16:43;;;;;;;3.60;1.70;;;;;;;9.71;65.02;99120.83;128425;1101;62146;-78
2021/05/04 07:19:09;;;;;;;2.53;1.47;;;;;;;9.70;64.79;99121.02;128402;1101;63087;-80
2021/05/04 07:21:36;;;;;;;2.07;1.30;;;;;;;9.70;66.13;99132.42;128411;1101;62268;-79
2021/05/04 07:24:04;;;;;;;2.00;1.07;;;;;;;9.64;66.32;99117.36;128426;1101;62051;-79
2021/05/04 07:26:32;;;;;;;2.87;1.37;;;;;;;9.67;66.52;99126.72;128455;1101;62065;-77
2021/05/04 07:28:59;;;;;;;2.00;1.40;;;;;;;9.66;65.75;99125.11;128457;1101;62221;-78
2021/05/04 07:31:26;;;;;;;3.20;1.50;;;;;;;9.67;64.93;99121.42;128420;1101;63545;-78
2021/05/04 07:33:52;;;;;;;3.50;1.43;;;;;;;9.62;64.51;99108.81;128494;1101;62038;-79
2021/05/04 07:36:19;;;;;;;2.10;1.60;;;;;;;9.72;64.62;99113.69;128486;1101;62275;-80
2021/05/04 07:38:45;;;;;;;1.77;1.10;;;;;;;9.74;63.51;99101.86;128415;1101;62050;-78
2021/05/04 07:41:12;;;;;;;1.83;1.10;;;;;;;9.85;63.44;99097.75;128447;1101;62181;-78
2021/05/04 07:43:39;;;;;;;2.60;1.27;;;;;;;9.97;62.93;99095.27;128408;1101;62447;-76
2021/05/04 07:46:05;;;;;;;1.97;1.13;;;;;;;9.99;62.56;99078.13;128446;1101;62247;-77
2021/05/04 07:48:32;;;;;;;2.70;1.30;;;;;;;10.05;62.24;99071.19;128443;1101;62101;-77
2021/05/04 07:50:59;;;;;;;3.00;1.47;;;;;;;10.12;61.80;99098.45;128441;1101;62236;-76
2021/05/04 07:53:25;;;;;;;2.57;1.40;;;;;;;10.15;61.77;99091.91;128440;1101;61673;-76
2021/05/04 07:55:52;;;;;;;1.80;1.27;;;;;;;10.20;61.75;99079.66;128445;1101;62662;-76
2021/05/04 07:58:18;;;;;;;2.83;1.17;;;;;;;10.23;61.53;99093.52;128428;1101;62622;-77
2021/05/04 08:00:45;;;;;;;2.37;1.30;;;;;;;10.23;61.58;99104.92;128419;1101;62080;-77
2021/05/04 08:03:14;;;;;;;4.30;1.10;;;;;;;10.29;63.20;99092.67;128380;1101;62725;-76
2021/05/04 08:05:46;;;;;;;2.48;1.45;;;;;;;10.42;62.61;99087.31;128421;1101;62099;-77
2021/05/04 08:08:13;;;;;;;1.73;0.87;;;;;;;10.52;62.15;99087.67;128453;1101;62939;-78
2021/05/04 08:10:40;;;;;;;2.00;1.37;;;;;;;10.59;62.25;99077.81;128408;1101;62100;-77
2021/05/04 08:13:07;;;;;;;1.90;1.20;;;;;;;10.59;62.60;99095.58;128434;1101;62364;-77
2021/05/04 08:15:35;;;;;;;1.57;0.90;;;;;;;10.64;63.54;99079.82;128407;1101;62101;-77
2021/05/04 08:18:06;;;;;;;5.30;1.10;;;;;;;10.65;63.87;99072.67;128447;1101;62405;-78
2021/05/04 08:20:34;;;;;;;2.20;0.83;;;;;;;10.78;64.59;99072.59;128410;1101;62111;-76
2021/05/04 08:23:01;;;;;;;1.57;1.03;;;;;;;10.85;63.82;99088.45;128456;1101;62353;-77
2021/05/04 08:25:29;;;;;;;2.57;1.10;;;;;;;10.68;63.03;99088.17;128405;1101;62268;-77
2021/05/04 08:27:55;;;;;;;1.70;1.00;;;;;;;10.39;63.74;99077.96;128462;1101;62015;-77
2021/05/04 08:30:22;;;;;;;2.07;1.10;;;;;;;10.24;63.64;99098.59;128401;1101;62393;-77
2021/05/04 08:32:56;;;;;;;2.20;1.10;;;;;;;10.24;64.71;99095.13;128483;1101;62669;-77
2021/05/04 08:35:24;;;;;;;2.07;1.10;;;;;;;10.29;63.93;99074.13;128397;1101;62052;-78
2021/05/04 08:37:53;;;;;;;2.77;0.80;;;;;;;10.46;63.38;99056.70;128476;1101;62110;-77
2021/05/04 08:40:20;;;;;;;1.80;0.93;;;;;;;10.70;62.31;99030.42;128444;1101;62505;-77
2021/05/04 08:42:47;;;;;;;3.03;1.40;;;;;;;10.99;62.32;99042.22;128432;1101;62035;-78
2021/05/04 08:45:15;;;;;;;1.73;0.80;;;;;;;11.18;60.79;99032.45;128443;1101;62434;-77
2021/05/04 08:47:43;;;;;;;1.97;0.97;;;;;;;11.26;60.68;99013.55;128440;1101;62601;-77
2021/05/04 08:50:15;;;;;;;2.17;1.10;;;;;;;11.22;60.36;99023.02;128402;1101;62151;-78
2021/05/04 08:52:42;;;;;;;34.83;18.83;;;;;;;11.21;61.15;99006.26;128436;1101;62368;-76
2021/05/04 08:55:11;;;;;;;8.23;3.50;;;;;;;11.00;59.87;99015.45;128460;1101;62227;-76
2021/05/04 08:57:39;;;;;;;5.70;3.03;;;;;;;10.85;61.38;99022.14;128437;1101;62366;-76
2021/05/04 09:00:11;;;;;;;4.43;1.67;;;;;;;10.66;61.62;99030.03;128399;1101;62173;-77
2021/05/04 09:03:14;;;;;;;5.50;1.90;;;;;;;10.62;61.24;99007.63;128393;1101;62872;-76
2021/05/04 09:08:45;;;;;;;1.90;1.10;;;;;;;10.74;61.50;99011.20;128370;1101;63098;-77
2021/05/04 09:16:48;;;;;;;1.67;0.90;;;;;;;10.75;60.06;99034.06;128449;1101;62354;-76
2021/05/04 09:19:36;;;;;;;2.93;1.00;;;;;;;10.77;59.82;99007.30;128418;1101;61976;-76
2021/05/04 09:22:02;;;;;;;2.83;1.30;;;;;;;10.92;59.58;98991.88;128460;1101;62144;-78
2021/05/04 09:24:40;;;;;;;3.23;0.97;;;;;;;10.94;59.66;99004.90;128347;1101;62101;-77
2021/05/04 09:27:15;;;;;;;1.40;0.70;;;;;;;10.90;59.75;99006.37;128389;1101;62253;-77
2021/05/04 09:29:55;;;;;;;1.40;0.90;;;;;;;10.83;59.23;99003.78;128114;1102;62368;-77
2021/05/04 09:32:32;;;;;;;2.68;0.98;;;;;;;10.83;59.43;98995.82;128463;1101;62077;-80
2021/05/04 09:35:02;;;;;;;3.60;0.97;;;;;;;10.76;59.69;99003.03;128510;1101;62130;-81
2021/05/04 09:37:36;;;;;;;1.90;0.80;;;;;;;10.78;59.93;99007.09;128414;1101;63583;-81
2021/05/04 09:40:29;;;;;;;3.47;1.33;;;;;;;10.94;59.57;98988.98;128508;1101;62114;-81
2021/05/04 09:43:03;;;;;;;2.53;1.10;;;;;;;11.14;58.89;98978.19;128464;1101;62485;-81
2021/05/04 09:45:29;;;;;;;2.13;1.00;;;;;;;11.21;58.77;98979.72;128471;1101;62320;-81
2021/05/04 09:48:08;;;;;;;2.77;0.80;;;;;;;11.26;58.09;98986.20;128203;1101;61912;-82
2021/05/04 09:50:50;;;;;;;2.33;0.77;;;;;;;11.39;58.33;98976.27;128507;1101;62833;-83
2021/05/04 09:53:22;;;;;;;2.20;0.93;;;;;;;11.43;57.17;98977.44;128499;1101;62111;-80
2021/05/04 09:56:00;;;;;;;2.00;0.70;;;;;;;11.43;57.43;98972.13;128508;1101;62113;-80
2021/05/04 09:58:42;;;;;;;2.25;0.75;;;;;;;11.49;57.64;98964.30;128466;1101;62328;-80
2021/05/04 10:01:19;;;;;;;1.70;0.80;;;;;;;11.62;57.29;98964.13;128416;1101;62211;-80
2021/05/04 10:03:46;;;;;;;;;;;;;;;11.70;57.44;98957.70;128410;1101;62458;-80
2021/05/04 10:06:15;;;;;;;2.03;0.80;;;;;;;11.82;56.83;98964.67;128386;1101;62498;-79
2021/05/04 10:08:43;;;;;;;2.17;1.00;;;;;;;11.95;57.23;98960.25;128472;1101;62215;-80
2021/05/04 10:11:21;;;;;;;1.77;0.90;;;;;;;11.96;56.28;98956.54;128221;1102;62009;-79
2021/05/04 10:13:53;;;;;;;0.93;0.70;;;;;;;11.99;57.06;98956.11;128508;1101;62300;-79
2021/05/04 10:16:30;;;;;;;1.50;0.87;;;;;;;11.83;56.85;98966.28;128464;1101;62793;-80
2021/05/04 10:19:03;;;;;;;1.97;0.70;;;;;;;11.75;57.50;98956.00;128194;1101;62804;-80
2021/05/04 10:21:31;;;;;;;1.53;0.80;;;;;;;11.56;57.49;98986.26;128599;1101;62065;-79
2021/05/04 10:23:58;;;;;;;1.77;0.97;;;;;;;11.41;58.44;98958.27;128498;1101;62213;-79
2021/05/04 10:26:29;;;;;;;1.80;0.83;;;;;;;11.41;58.70;98958.27;128463;1101;62172;-80
2021/05/04 10:29:00;;;;;;;1.87;0.63;;;;;;;11.58;57.54;98960.28;128513;1101;62860;-80
2021/05/04 10:31:37;;;;;;;1.60;0.60;;;;;;;11.74;57.90;98959.67;128427;1101;62404;-80
2021/05/04 10:34:23;;;;;;;1.00;0.40;;;;;;;11.88;56.14;98955.03;128423;1101;62176;-80
2021/05/04 10:36:56;;;;;;;;;;;;;;;12.13;55.61;98957.50;128488;1101;62529;-80
2021/05/04 10:39:52;;;;;;;1.90;0.70;;;;;;;12.26;54.87;98951.17;128519;1101;62647;-80
2021/05/04 10:42:36;;;;;;;1.60;0.70;;;;;;;12.38;55.72;98956.52;128182;1101;62410;-79
2021/05/04 10:45:11;;;;;;;0.70;0.47;;;;;;;12.28;55.03;98956.27;128281;1101;63908;-78
2021/05/04 10:47:44;;;;;;;1.38;0.55;;;;;;;12.30;55.69;98948.88;128378;1101;62199;-79
2021/05/04 10:50:23;;;;;;;2.43;0.40;;;;;;;12.23;54.36;98923.20;128401;1101;62097;-80
2021/05/04 10:53:07;;;;;;;1.00;0.50;;;;;;;12.24;55.15;98955.94;128474;1101;62253;-80
2021/05/04 10:55:52;;;;;;;1.47;0.60;;;;;;;12.15;54.65;98942.14;128516;1101;62191;-81
2021/05/04 10:58:23;;;;;;;2.40;0.60;;;;;;;12.19;54.36;98932.67;128439;1101;62118;-81
2021/05/04 11:00:52;;;;;;;3.47;0.80;;;;;;;12.20;54.10;98928.19;128479;1101;62075;-81
2021/05/04 11:03:34;;;;;;;1.40;0.80;;;;;;;12.36;54.91;98918.72;128500;1101;62104;-81
2021/05/04 11:06:08;;;;;;;0.70;0.40;;;;;;;12.52;54.31;98893.30;128385;1101;62690;-81
2021/05/04 11:08:44;;;;;;;2.00;0.60;;;;;;;12.56;53.28;98911.22;128504;1101;63147;-81
2021/05/04 11:11:36;;;;;;;0.90;0.50;;;;;;;12.56;53.44;98895.27;128406;1101;62527;-81
2021/05/04 11:14:16;;;;;;;4.83;0.87;;;;;;;12.51;53.64;98903.11;128689;1101;62244;-81
2021/05/04 11:16:59;;;;;;;3.20;0.70;;;;;;;12.55;54.07;98898.14;128504;1101;62100;-81
2021/05/04 11:19:29;;;;;;;1.20;0.50;;;;;;;12.56;54.87;98889.94;128503;1101;62574;-80
2021/05/04 11:21:59;;;;;;;2.30;0.50;;;;;;;12.58;54.97;98887.86;128489;1101;62470;-80
2021/05/04 11:24:28;;;;;;;2.60;0.73;;;;;;;12.72;54.01;98898.25;128437;1101;62311;-80
2021/05/04 11:27:01;;;;;;;1.10;0.60;;;;;;;12.75;54.13;98877.31;128520;1101;61701;-79
2021/05/04 11:29:30;;;;;;;5.97;0.70;;;;;;;12.69;53.98;98883.57;128520;1101;62021;-80
2021/05/04 11:32:16;;;;;;;2.87;0.80;;;;;;;12.53;54.21;98894.91;128232;1102;62658;-80
2021/05/04 11:35:04;;;;;;;3.23;0.80;;;;;;;12.35;55.14;98890.52;128469;1101;62572;-80
2021/05/04 11:37:33;;;;;;;0.93;0.57;;;;;;;12.24;55.90;98903.58;128219;1101;62391;-80
2021/05/04 11:40:20;;;;;;;1.07;0.50;;;;;;;12.23;56.99;98933.84;128554;1101;62151;-80
2021/05/04 11:42:51;;;;;;;0.50;0.30;;;;;;;12.33;56.18;98927.17;128488;1101;62910;-81
2021/05/04 11:45:19;;;;;;;0.90;0.50;;;;;;;12.63;54.40;98901.26;128206;1101;62318;-76
2021/05/04 11:47:48;;;;;;;1.37;0.50;;;;;;;12.61;53.82;98924.63;128488;1101;62341;-77